createdAt,value
2022-11-02T00:00:28.738Z,101131.43
2022-11-02T00:03:20.945Z,101128.45
2022-11-02T00:05:53.134Z,101129.66
2022-11-02T00:08:25.473Z,101123.75
2022-11-02T00:10:57.632Z,101121.39
2022-11-02T00:13:29.789Z,101122.63
2022-11-02T00:16:05.288Z,101119.31
2022-11-02T00:18:38.419Z,101118.56
2022-11-02T00:21:10.631Z,101116.05
2022-11-02T00:23:43.867Z,101116.48
2022-11-02T00:26:16.631Z,101117.05
2022-11-02T00:28:48.874Z,101108.76
2022-11-02T00:31:21.085Z,101113.30
2022-11-02T00:33:54.183Z,101109.90
2022-11-02T00:36:27.905Z,101107.66
2022-11-02T00:39:00.020Z,101104.64
2022-11-02T00:41:32.179Z,101103.15
2022-11-02T00:44:04.618Z,101100.32
2022-11-02T00:46:36.757Z,101095.81
2022-11-02T00:49:09.056Z,101096.95
2022-11-02T00:51:41.233Z,101096.70
2022-11-02T00:54:13.367Z,101093.77
2022-11-02T00:56:45.644Z,101090.39
2022-11-02T00:59:17.815Z,101088.84
2022-11-02T01:01:50.579Z,101080.04
2022-11-02T01:04:22.860Z,101079.91
2022-11-02T01:06:55.518Z,101079.03
2022-11-02T01:09:27.771Z,101076.31
2022-11-02T01:12:00.101Z,101075.17
2022-11-02T01:14:32.458Z,101072.48
2022-11-02T01:17:04.931Z,101069.21
2022-11-02T01:19:37.103Z,101068.61
2022-11-02T01:22:09.661Z,101067.98
2022-11-02T01:24:41.981Z,101067.14
2022-11-02T01:27:14.207Z,101065.12
2022-11-02T01:29:46.450Z,101063.27
2022-11-02T01:32:18.579Z,101066.48
2022-11-02T01:34:50.759Z,101059.90
2022-11-02T01:37:23.031Z,101063.39
2022-11-02T01:39:55.196Z,101060.76
2022-11-02T01:42:28.799Z,101055.60
2022-11-02T01:45:00.960Z,101055.87
2022-11-02T01:47:36.988Z,101052.65
2022-11-02T01:50:13.277Z,101054.52
2022-11-02T01:52:45.806Z,101049.11
2022-11-02T01:55:22.595Z,101049.90
2022-11-02T01:58:01.097Z,101045.27
2022-11-02T02:00:33.484Z,101042.27
2022-11-02T02:03:09.622Z,101040.92
2022-11-02T02:05:46.523Z,101040.84
2022-11-02T02:08:21.953Z,101040.14
2022-11-02T02:10:56.911Z,101035.10
2022-11-02T02:13:30.337Z,101034.89
2022-11-02T02:16:10.646Z,101032.58
2022-11-02T02:18:49.653Z,101032.36
2022-11-02T02:21:35.665Z,101026.97
2022-11-02T02:24:32.321Z,101026.55
2022-11-02T02:27:17.598Z,101021.96
2022-11-02T02:30:02.378Z,101018.96
2022-11-02T02:32:41.475Z,101018.48
2022-11-02T02:35:22.051Z,101016.44
2022-11-02T02:37:59.817Z,101014.81
2022-11-02T02:40:36.062Z,101009.76
2022-11-02T02:43:11.846Z,101012.78
2022-11-02T02:45:45.475Z,101013.89
2022-11-02T02:48:21.007Z,101011.53
2022-11-02T02:50:56.247Z,101008.27
2022-11-02T02:53:34.561Z,101004.79
2022-11-02T02:56:09.066Z,101008.20
2022-11-02T02:58:46.584Z,101003.30
2022-11-02T03:01:20.317Z,101002.23
2022-11-02T03:03:52.616Z,101003.45
2022-11-02T03:06:28.717Z,101001.58
2022-11-02T03:09:10.474Z,101003.61
2022-11-02T03:11:52.490Z,101005.34
2022-11-02T03:14:39.625Z,101003.10
2022-11-02T03:17:19.243Z,100999.64
2022-11-02T03:19:56.601Z,100996.53
2022-11-02T03:22:35.187Z,100992.09
2022-11-02T03:25:15.633Z,100996.98
2022-11-02T03:27:57.615Z,101000.55
2022-11-02T03:30:34.704Z,101000.91
2022-11-02T03:33:10.755Z,100998.42
2022-11-02T03:35:51.422Z,101001.11
2022-11-02T03:38:26.488Z,100998.48
2022-11-02T03:41:02.352Z,100999.85
2022-11-02T03:43:35.428Z,101000.42
2022-11-02T03:46:10.084Z,101002.80
2022-11-02T03:48:45.673Z,101009.25
2022-11-02T03:51:20.614Z,101009.09
2022-11-02T03:53:57.826Z,101008.65
2022-11-02T03:56:34.165Z,101008.05
2022-11-02T03:59:06.653Z,101010.05
2022-11-02T04:01:44.837Z,101014.56
2022-11-02T04:04:17.632Z,101007.46
2022-11-02T04:06:51.094Z,101002.98
2022-11-02T04:09:23.439Z,101005.27
2022-11-02T04:12:13.172Z,101003.05
2022-11-02T04:14:45.364Z,100999.85
2022-11-02T04:17:34.886Z,101003.89
2022-11-02T04:20:08.352Z,100997.02
2022-11-02T04:22:57.901Z,100991.27
2022-11-02T04:25:30.171Z,100990.75
2022-11-02T04:28:10.295Z,100988.09
2022-11-02T04:30:42.458Z,100986.77
2022-11-02T04:33:32.314Z,100985.70
2022-11-02T04:36:06.690Z,100990.20
2022-11-02T04:38:41.751Z,100989.20
2022-11-02T04:41:34.218Z,100988.89
2022-11-02T04:44:06.820Z,100986.45
2022-11-02T04:46:40.711Z,100983.48
2022-11-02T04:49:14.476Z,100978.95
2022-11-02T04:51:49.893Z,100978.69
2022-11-02T04:54:22.634Z,100972.45
2022-11-02T04:56:54.819Z,100977.78
2022-11-02T04:59:26.990Z,100985.05
2022-11-02T05:01:59.326Z,100978.93
2022-11-02T05:04:31.962Z,100983.61
2022-11-02T05:07:06.618Z,100991.94
2022-11-02T05:09:38.875Z,100989.92
2022-11-02T05:12:11.085Z,100996.09
2022-11-02T05:14:43.365Z,100992.38
2022-11-02T05:17:16.486Z,100989.08
2022-11-02T05:19:48.695Z,100992.82
2022-11-02T05:22:21.569Z,100992.63
2022-11-02T05:24:53.774Z,100989.11
2022-11-02T05:27:25.958Z,100994.50
2022-11-02T05:29:58.295Z,101000.79
2022-11-02T05:32:31.626Z,100999.34
2022-11-02T05:35:03.943Z,101002.34
2022-11-02T05:37:36.088Z,101010.98
2022-11-02T05:40:10.593Z,101008.13
2022-11-02T05:42:42.747Z,101006.40
2022-11-02T05:45:16.518Z,101011.05
2022-11-02T05:47:50.471Z,101009.08
2022-11-02T05:50:22.749Z,101003.27
2022-11-02T05:52:55.210Z,100999.88
2022-11-02T05:55:27.396Z,101005.48
2022-11-02T05:57:59.629Z,101006.88
2022-11-02T06:00:31.935Z,101002.88
2022-11-02T06:03:04.421Z,101002.06
2022-11-02T06:05:37.110Z,101005.56
2022-11-02T06:08:09.496Z,101010.45
2022-11-02T06:10:43.379Z,101006.67
2022-11-02T06:13:15.543Z,101006.23
2022-11-02T06:15:47.944Z,101004.58
2022-11-02T06:18:20.222Z,101010.69
2022-11-02T06:20:52.414Z,101008.94
2022-11-02T06:23:24.569Z,101007.58
2022-11-02T06:25:58.219Z,101002.08
2022-11-02T06:28:31.516Z,101001.23
2022-11-02T06:31:03.659Z,100997.20
2022-11-02T06:33:35.865Z,100997.73
2022-11-02T06:36:09.204Z,100995.29
2022-11-02T06:38:42.211Z,101003.66
2022-11-02T06:41:14.607Z,101011.23
2022-11-02T06:43:46.840Z,101011.74
2022-11-02T06:46:19.027Z,101009.46
2022-11-02T06:48:51.277Z,101012.37
2022-11-02T06:51:23.531Z,101013.05
2022-11-02T06:53:55.933Z,101011.74
2022-11-02T06:56:28.116Z,101012.05
2022-11-02T06:59:00.417Z,101009.67
2022-11-02T07:01:32.818Z,101012.49
2022-11-02T07:04:05.849Z,101009.73
2022-11-02T07:06:38.005Z,101009.05
2022-11-02T07:09:10.290Z,101008.11
2022-11-02T07:11:45.046Z,101007.27
2022-11-02T07:14:17.280Z,101011.14
2022-11-02T07:16:49.523Z,101005.70
2022-11-02T07:19:21.794Z,101002.36
2022-11-02T07:21:54.149Z,101004.39
2022-11-02T07:24:26.801Z,100997.99
2022-11-02T07:26:58.964Z,100994.35
2022-11-02T07:29:31.089Z,100989.48
2022-11-02T07:32:03.600Z,100993.73
2022-11-02T07:34:35.766Z,100991.48
2022-11-02T07:37:07.895Z,100992.17
2022-11-02T07:39:40.139Z,100993.42
2022-11-02T07:42:12.347Z,100987.73
2022-11-02T07:44:44.504Z,100987.09
2022-11-02T07:47:16.702Z,100990.66
2022-11-02T07:49:48.937Z,100987.66
2022-11-02T07:52:21.182Z,100988.15
2022-11-02T07:54:53.584Z,100984.64
2022-11-02T07:57:26.167Z,100981.99
2022-11-02T07:59:58.964Z,100988.63
2022-11-02T08:02:31.573Z,100982.45
2022-11-02T08:05:03.874Z,100981.17
2022-11-02T08:07:36.081Z,100977.46
2022-11-02T08:10:10.174Z,100978.20
2022-11-02T08:12:42.435Z,100971.82
2022-11-02T08:15:15.337Z,100973.72
2022-11-02T08:17:47.662Z,100980.86
2022-11-02T08:20:19.910Z,100982.23
2022-11-02T08:22:52.143Z,100979.77
2022-11-02T08:25:25.737Z,100982.83
2022-11-02T08:28:03.288Z,100978.02
2022-11-02T08:30:36.637Z,100975.52
2022-11-02T08:33:13.261Z,100969.38
2022-11-02T08:35:46.919Z,100962.65
2022-11-02T08:38:22.591Z,100957.29
2022-11-02T08:40:56.209Z,100952.37
2022-11-02T08:43:28.823Z,100954.38
2022-11-02T08:46:18.754Z,100954.35
2022-11-02T08:48:51.077Z,100950.89
2022-11-02T08:51:23.285Z,100952.40
2022-11-02T08:53:55.757Z,100954.88
2022-11-02T08:56:28.668Z,100952.17
2022-11-02T08:59:01.116Z,100957.48
2022-11-02T09:01:33.581Z,100958.66
2022-11-02T09:04:06.068Z,100960.27
2022-11-02T09:06:38.249Z,100958.09
2022-11-02T09:09:10.471Z,100956.12
2022-11-02T09:11:42.773Z,100957.34
2022-11-02T09:14:15.079Z,100957.41
2022-11-02T09:16:47.789Z,100961.07
2022-11-02T09:19:19.996Z,100959.70
2022-11-02T09:21:52.241Z,100957.66
2022-11-02T09:24:24.447Z,100960.98
2022-11-02T09:26:56.769Z,100962.92
2022-11-02T09:29:29.080Z,100960.85
2022-11-02T09:32:01.619Z,100956.73
2022-11-02T09:34:34.130Z,100951.08
2022-11-02T09:37:06.471Z,100957.14
2022-11-02T09:39:38.634Z,100957.46
2022-11-02T09:42:20.269Z,100953.85
2022-11-02T09:44:57.803Z,100948.91
2022-11-02T09:48:24.878Z,100947.55
2022-11-02T09:50:30.757Z,100947.36
2022-11-02T09:53:08.676Z,100946.30
2022-11-02T09:55:48.366Z,100941.14
2022-11-02T09:58:25.154Z,100939.86
2022-11-02T10:01:05.450Z,100934.66
2022-11-02T10:03:54.305Z,100932.17
2022-11-02T10:06:30.374Z,100928.39
2022-11-02T10:09:15.185Z,100927.08
2022-11-02T10:11:53.706Z,100931.80
2022-11-02T10:14:32.829Z,100929.72
2022-11-02T10:17:13.002Z,100923.59
2022-11-02T10:19:49.664Z,100919.77
2022-11-02T10:22:25.948Z,100920.81
2022-11-02T10:25:01.747Z,100918.64
2022-11-02T10:27:38.854Z,100918.35
2022-11-02T10:30:18.448Z,100915.65
2022-11-02T10:32:54.586Z,100911.23
2022-11-02T10:36:16.388Z,100911.86
2022-11-02T10:38:40.460Z,100907.84
2022-11-02T10:41:27.272Z,100905.29
2022-11-02T10:44:14.088Z,100899.83
2022-11-02T10:46:59.375Z,100896.67
2022-11-02T10:50:11.897Z,100897.30
2022-11-02T10:52:47.106Z,100888.39
2022-11-02T10:55:27.647Z,100883.88
2022-11-02T10:58:03.123Z,100879.73
2022-11-02T11:00:38.358Z,100876.00
2022-11-02T11:03:15.586Z,100872.64
2022-11-02T11:06:00.413Z,100869.21
2022-11-02T11:08:36.941Z,100868.45
2022-11-02T11:11:26.354Z,100867.63
2022-11-02T11:16:55.530Z,100863.48
2022-11-02T11:22:30.257Z,100852.70
2022-11-02T11:25:28.404Z,100857.38
2022-11-02T11:28:01.692Z,100853.36
2022-11-02T11:30:59.069Z,100849.14
2022-11-02T11:33:30.201Z,100848.52
2022-11-02T11:36:03.037Z,100844.86
2022-11-02T11:38:35.243Z,100839.77
2022-11-02T11:41:07.859Z,100839.40
2022-11-02T11:43:41.144Z,100836.63
2022-11-02T11:46:15.472Z,100839.09
2022-11-02T11:48:52.062Z,100834.66
2022-11-02T11:51:38.642Z,100831.32
2022-11-02T11:54:26.897Z,100827.73
2022-11-02T11:57:00.905Z,100829.73
2022-11-02T11:59:48.133Z,100826.19
2022-11-02T12:02:27.501Z,100822.52
2022-11-02T12:05:13.093Z,100817.66
2022-11-02T12:08:01.092Z,100817.42
2022-11-02T12:10:53.502Z,100814.83
2022-11-02T12:13:44.071Z,100814.71
2022-11-02T12:16:27.413Z,100810.08
2022-11-02T12:19:14.433Z,100804.71
2022-11-02T12:22:04.627Z,100804.16
2022-11-02T12:25:05.475Z,100799.86
2022-11-02T12:27:49.649Z,100798.16
2022-11-02T12:30:24.532Z,100795.69
2022-11-02T12:33:19.733Z,100790.73
2022-11-02T12:36:21.602Z,100791.31
2022-11-02T12:39:06.423Z,100790.56
2022-11-02T12:42:12.945Z,100786.79
2022-11-02T12:44:51.860Z,100782.88
2022-11-02T12:47:38.494Z,100783.99
2022-11-02T12:50:20.465Z,100784.08
2022-11-02T12:53:05.567Z,100780.02
2022-11-02T12:55:45.586Z,100778.06
2022-11-02T12:58:22.473Z,100781.60
2022-11-02T13:01:00.389Z,100770.70
2022-11-02T13:03:44.112Z,100773.20
2022-11-02T13:06:21.322Z,100769.45
2022-11-02T13:08:58.878Z,100769.52
2022-11-02T13:11:35.566Z,100768.01
2022-11-02T13:14:15.550Z,100768.00
2022-11-02T13:16:54.247Z,100763.85
2022-11-02T13:19:35.426Z,100766.83
2022-11-02T13:22:11.256Z,100773.38
2022-11-02T13:24:47.238Z,100769.96
2022-11-02T13:27:36.420Z,100767.48
2022-11-02T13:30:18.090Z,100769.02
2022-11-02T13:32:57.739Z,100770.20
2022-11-02T13:35:34.612Z,100765.68
2022-11-02T13:38:20.990Z,100763.92
2022-11-02T13:41:03.840Z,100763.85
2022-11-02T13:44:01.434Z,100761.85
2022-11-02T13:47:01.642Z,100766.04
2022-11-02T13:49:36.949Z,100761.76
2022-11-02T13:52:15.263Z,100762.82
2022-11-02T13:54:51.915Z,100762.48
2022-11-02T13:57:33.563Z,100761.51
2022-11-02T14:00:27.913Z,100762.77
2022-11-02T14:03:07.074Z,100766.14
2022-11-02T14:05:46.685Z,100768.74
2022-11-02T14:08:30.029Z,100771.02
2022-11-02T14:11:38.221Z,100772.91
2022-11-02T14:14:20.621Z,100771.26
2022-11-02T14:17:18.958Z,100771.47
2022-11-02T14:20:04.851Z,100768.44
2022-11-02T14:22:35.353Z,100766.48
2022-11-02T14:25:22.635Z,100767.95
2022-11-02T14:27:57.126Z,100766.48
2022-11-02T14:30:45.965Z,100762.91
2022-11-02T14:33:40.432Z,100761.73
2022-11-02T14:36:22.725Z,100760.31
2022-11-02T14:39:11.727Z,100765.27
2022-11-02T14:42:05.693Z,100764.77
2022-11-02T14:45:08.048Z,100763.35
2022-11-02T14:47:41.494Z,100769.52
2022-11-02T14:50:19.727Z,100772.48
2022-11-02T14:53:06.602Z,100772.83
2022-11-02T14:55:40.492Z,100775.93
2022-11-02T14:58:20.424Z,100774.59
2022-11-02T15:01:02.697Z,100780.08
2022-11-02T15:03:41.425Z,100777.04
2022-11-02T15:06:21.437Z,100784.65
2022-11-02T15:08:57.317Z,100788.59
2022-11-02T15:11:51.140Z,100790.24
2022-11-02T15:15:00.914Z,100794.44
2022-11-02T15:18:09.746Z,100798.25
2022-11-02T15:20:46.225Z,100802.21
2022-11-02T15:23:31.016Z,100802.52
2022-11-02T15:26:11.566Z,100806.67
2022-11-02T15:28:47.174Z,100806.70
2022-11-02T15:31:25.851Z,100810.29
2022-11-02T15:34:03.441Z,100813.70
2022-11-02T15:36:39.460Z,100819.33
2022-11-02T15:39:13.797Z,100820.45
2022-11-02T15:41:52.783Z,100821.25
2022-11-02T15:44:55.902Z,100827.54
2022-11-02T15:47:42.279Z,100825.70
2022-11-02T15:50:35.666Z,100827.36
2022-11-02T15:53:35.594Z,100832.08
2022-11-02T15:56:20.678Z,100833.94
2022-11-02T15:59:16.346Z,100834.38
2022-11-02T16:02:03.485Z,100842.77
2022-11-02T16:04:37.553Z,100838.44
2022-11-02T16:07:15.030Z,100843.70
2022-11-02T16:09:48.309Z,100846.26
2022-11-02T16:12:21.961Z,100847.44
2022-11-02T16:15:00.742Z,100848.77
2022-11-02T16:17:33.879Z,100850.05
2022-11-02T16:20:19.300Z,100853.10
2022-11-02T16:22:54.622Z,100861.27
2022-11-02T16:25:39.715Z,100862.73
2022-11-02T16:28:22.782Z,100863.50
2022-11-02T16:31:19.041Z,100863.54
2022-11-02T16:33:54.508Z,100859.59
2022-11-02T16:36:29.664Z,100862.32
2022-11-02T16:39:03.748Z,100859.55
2022-11-02T16:41:37.650Z,100861.27
2022-11-02T16:44:17.189Z,100864.48
2022-11-02T16:46:54.762Z,100869.01
2022-11-02T16:49:29.151Z,100871.33
2022-11-02T16:52:08.264Z,100875.44
2022-11-02T16:54:45.063Z,100875.65
2022-11-02T16:57:21.094Z,100877.14
2022-11-02T16:59:55.905Z,100880.73
2022-11-02T17:02:38.601Z,100887.43
2022-11-02T17:05:20.801Z,100888.66
2022-11-02T17:08:00.549Z,100889.56
2022-11-02T17:10:35.286Z,100888.00
2022-11-02T17:13:20.310Z,100887.13
2022-11-02T17:15:56.976Z,100891.85
2022-11-02T17:18:31.133Z,100890.60
2022-11-02T17:21:28.409Z,100888.32
2022-11-02T17:24:01.581Z,100892.03
2022-11-02T17:26:38.803Z,100890.34
2022-11-02T17:29:34.672Z,100888.11
2022-11-02T17:32:14.435Z,100892.85
2022-11-02T17:34:54.089Z,100887.98
2022-11-02T17:37:28.906Z,100888.14
2022-11-02T17:40:03.632Z,100889.26
2022-11-02T17:42:54.484Z,100889.98
2022-11-02T17:45:29.625Z,100893.77
2022-11-02T17:48:03.209Z,100893.59
2022-11-02T17:50:37.924Z,100893.48
2022-11-02T17:53:14.738Z,100891.13
2022-11-02T17:55:47.081Z,100893.15
2022-11-02T17:58:19.504Z,100892.61
2022-11-02T18:00:53.982Z,100898.58
2022-11-02T18:03:31.227Z,100898.56
2022-11-02T18:06:03.906Z,100897.50
2022-11-02T18:08:56.425Z,100894.70
2022-11-02T18:11:28.604Z,100895.80
2022-11-02T18:14:01.099Z,100896.23
2022-11-02T18:16:34.112Z,100897.88
2022-11-02T18:19:06.351Z,100908.52
2022-11-02T18:21:38.765Z,100909.73
2022-11-02T18:24:11.276Z,100913.73
2022-11-02T18:26:46.710Z,100918.05
2022-11-02T18:29:20.184Z,100923.11
2022-11-02T18:31:52.534Z,100921.87
2022-11-02T18:34:24.782Z,100925.68
2022-11-02T18:36:57.103Z,100926.17
2022-11-02T18:39:29.325Z,100928.80
2022-11-02T18:42:01.605Z,100928.09
2022-11-02T18:44:33.801Z,100927.88
2022-11-02T18:47:06.033Z,100931.27
2022-11-02T18:49:38.214Z,100931.85
2022-11-02T18:52:10.581Z,100941.95
2022-11-02T18:54:42.788Z,100947.77
2022-11-02T18:57:15.115Z,100950.38
2022-11-02T18:59:47.426Z,100953.50
2022-11-02T19:02:19.785Z,100957.84
2022-11-02T19:04:52.139Z,100964.38
2022-11-02T19:07:42.139Z,100967.44
2022-11-02T19:10:14.434Z,100963.16
2022-11-02T19:12:46.653Z,100964.83
2022-11-02T19:15:18.924Z,100974.27
2022-11-02T19:17:51.241Z,100978.02
2022-11-02T19:20:23.815Z,100982.75
2022-11-02T19:22:57.694Z,100989.45
2022-11-02T19:25:29.951Z,100990.02
2022-11-02T19:28:04.787Z,100992.67
2022-11-02T19:30:40.351Z,100996.23
2022-11-02T19:33:12.740Z,100998.63
2022-11-02T19:35:54.854Z,101001.77
2022-11-02T19:38:27.487Z,101000.96
2022-11-02T19:41:10.051Z,101005.88
2022-11-02T19:43:43.790Z,101002.11
2022-11-02T19:46:18.136Z,101009.58
2022-11-02T19:48:50.834Z,101009.60
2022-11-02T19:51:25.576Z,101013.89
2022-11-02T19:53:59.566Z,101017.34
2022-11-02T19:56:34.178Z,101017.64
2022-11-02T19:59:07.773Z,101018.75
2022-11-02T20:01:42.379Z,101025.86
2022-11-02T20:04:14.887Z,101024.93
2022-11-02T20:06:48.646Z,101026.27
2022-11-02T20:09:22.055Z,101027.48
2022-11-02T20:11:54.779Z,101026.55
2022-11-02T20:14:27.483Z,101030.95
2022-11-02T20:17:18.124Z,101033.79
2022-11-02T20:19:52.198Z,101036.29
2022-11-02T20:22:24.418Z,101039.90
2022-11-02T20:24:56.661Z,101035.32
2022-11-02T20:27:28.981Z,101038.02
2022-11-02T20:30:01.248Z,101037.89
2022-11-02T20:32:33.754Z,101042.66
2022-11-02T20:35:11.012Z,101043.70
2022-11-02T20:37:45.820Z,101046.70
2022-11-02T20:40:18.378Z,101045.85
2022-11-02T20:42:52.197Z,101050.02
2022-11-02T20:45:24.703Z,101046.04
2022-11-02T20:47:57.076Z,101045.70
2022-11-02T20:50:29.873Z,101045.24
2022-11-02T20:53:02.340Z,101051.88
2022-11-02T20:55:34.755Z,101052.75
2022-11-02T20:58:06.921Z,101055.88
2022-11-02T21:00:39.284Z,101059.61
2022-11-02T21:03:12.028Z,101060.88
2022-11-02T21:05:45.037Z,101063.60
2022-11-02T21:08:19.564Z,101065.59
2022-11-02T21:10:59.746Z,101067.13
2022-11-02T21:13:50.087Z,101072.10
2022-11-02T21:16:22.446Z,101072.64
2022-11-02T21:18:54.781Z,101068.69
2022-11-02T21:21:27.098Z,101074.52
2022-11-02T21:23:59.294Z,101070.64
2022-11-02T21:26:31.619Z,101070.33
2022-11-02T21:29:04.995Z,101067.92
2022-11-02T21:31:37.501Z,101068.39
2022-11-02T21:34:09.685Z,101067.35
2022-11-02T21:36:41.884Z,101067.31
2022-11-02T21:39:14.161Z,101066.88
2022-11-02T21:41:46.835Z,101066.95
2022-11-02T21:44:19.216Z,101069.08
2022-11-02T21:46:53.901Z,101069.61
2022-11-02T21:49:26.246Z,101069.10
2022-11-02T21:51:58.515Z,101071.25
2022-11-02T21:54:30.779Z,101064.77
2022-11-02T21:57:03.054Z,101068.73
2022-11-02T21:59:35.351Z,101067.56
2022-11-02T22:02:07.697Z,101071.81
2022-11-02T22:04:40.187Z,101071.46
2022-11-02T22:07:12.392Z,101079.35
2022-11-02T22:09:44.585Z,101090.45
2022-11-02T22:12:34.252Z,101100.29
2022-11-02T22:15:07.801Z,101107.50
2022-11-02T22:17:55.447Z,101109.20
2022-11-02T22:20:27.874Z,101114.86
2022-11-02T22:23:00.118Z,101116.34
2022-11-02T22:25:32.335Z,101116.84
2022-11-02T22:28:04.556Z,101112.79
2022-11-02T22:30:38.298Z,101114.99
2022-11-02T22:33:12.639Z,101117.09
2022-11-02T22:35:44.867Z,101116.88
2022-11-02T22:38:30.990Z,101113.55
2022-11-02T22:41:02.501Z,101110.10
2022-11-02T22:43:34.768Z,101107.35
2022-11-02T22:46:08.814Z,101108.55
2022-11-02T22:48:41.288Z,101105.48
2022-11-02T22:51:14.267Z,101114.10
2022-11-02T22:53:46.478Z,101122.27
2022-11-02T22:56:20.397Z,101126.64
2022-11-02T22:58:52.763Z,101132.95
2022-11-02T23:01:27.540Z,101133.10
2022-11-02T23:04:01.294Z,101137.89
2022-11-02T23:06:34.074Z,101151.52
2022-11-02T23:09:07.041Z,101154.27
2022-11-02T23:11:39.729Z,101158.12
2022-11-02T23:14:13.624Z,101162.89
2022-11-02T23:16:47.824Z,101172.95
2022-11-02T23:19:27.574Z,101178.54
2022-11-02T23:22:20.005Z,101183.34
2022-11-02T23:25:12.836Z,101180.39
2022-11-02T23:28:04.600Z,101175.36
2022-11-02T23:30:55.981Z,101179.39
2022-11-02T23:33:31.687Z,101189.67
2022-11-02T23:36:16.150Z,101198.27
2022-11-02T23:39:21.693Z,101203.04
2022-11-02T23:41:54.004Z,101205.84
2022-11-02T23:44:29.318Z,101206.97
2022-11-02T23:47:01.554Z,101208.02
2022-11-02T23:49:33.820Z,101211.02
2022-11-02T23:52:23.549Z,101210.66
2022-11-02T23:55:13.380Z,101217.85
2022-11-02T23:57:45.613Z,101223.45
